sensor_id;sensor_type;location;lat;lon;timestamp;temperature;humidity
55369;DHT22;41247;49.736;8.752;2022-12-29T00:01:37;10.50;99.90
55369;DHT22;41247;49.736;8.752;2022-12-29T00:05:18;10.50;99.90
55369;DHT22;41247;49.736;8.752;2022-12-29T00:08:58;10.50;99.90
55369;DHT22;41247;49.736;8.752;2022-12-29T00:12:39;10.50;99.90
55369;DHT22;41247;49.736;8.752;2022-12-29T00:16:20;10.50;99.90
55369;DHT22;41247;49.736;8.752;2022-12-29T00:20:00;10.40;99.90
55369;DHT22;41247;49.736;8.752;2022-12-29T00:23:41;10.40;99.90
55369;DHT22;41247;49.736;8.752;2022-12-29T00:27:21;10.40;99.90
55369;DHT22;41247;49.736;8.752;2022-12-29T00:31:03;10.30;99.90
55369;DHT22;41247;49.736;8.752;2022-12-29T00:34:48;10.30;99.90
55369;DHT22;41247;49.736;8.752;2022-12-29T00:38:31;10.30;99.90
55369;DHT22;41247;49.736;8.752;2022-12-29T00:42:13;10.20;99.90
55369;DHT22;41247;49.736;8.752;2022-12-29T00:45:53;10.20;99.90
55369;DHT22;41247;49.736;8.752;2022-12-29T00:49:34;10.10;99.90
55369;DHT22;41247;49.736;8.752;2022-12-29T00:53:15;10.00;99.90
55369;DHT22;41247;49.736;8.752;2022-12-29T00:56:55;9.60;99.90
55369;DHT22;41247;49.736;8.752;2022-12-29T01:00:36;9.40;99.90
55369;DHT22;41247;49.736;8.752;2022-12-29T01:04:17;9.40;99.90
55369;DHT22;41247;49.736;8.752;2022-12-29T01:07:57;9.40;99.90
55369;DHT22;41247;49.736;8.752;2022-12-29T01:11:39;9.50;99.90
55369;DHT22;41247;49.736;8.752;2022-12-29T01:15:20;9.60;99.90
55369;DHT22;41247;49.736;8.752;2022-12-29T01:19:00;9.50;99.90
55369;DHT22;41247;49.736;8.752;2022-12-29T01:22:41;9.50;99.90
55369;DHT22;41247;49.736;8.752;2022-12-29T01:26:21;9.40;99.90
55369;DHT22;41247;49.736;8.752;2022-12-29T01:30:02;9.40;99.90
55369;DHT22;41247;49.736;8.752;2022-12-29T01:33:44;9.50;99.90
55369;DHT22;41247;49.736;8.752;2022-12-29T01:37:24;9.50;99.90
55369;DHT22;41247;49.736;8.752;2022-12-29T01:41:07;9.60;99.90
55369;DHT22;41247;49.736;8.752;2022-12-29T01:44:52;9.60;99.90
55369;DHT22;41247;49.736;8.752;2022-12-29T01:48:35;9.70;99.90
55369;DHT22;41247;49.736;8.752;2022-12-29T01:52:15;9.70;99.90
55369;DHT22;41247;49.736;8.752;2022-12-29T01:56:00;9.70;99.90
55369;DHT22;41247;49.736;8.752;2022-12-29T02:00:07;9.60;99.90
55369;DHT22;41247;49.736;8.752;2022-12-29T02:03:50;9.60;99.90
55369;DHT22;41247;49.736;8.752;2022-12-29T02:07:31;9.60;99.90
55369;DHT22;41247;49.736;8.752;2022-12-29T02:11:12;9.60;99.90
55369;DHT22;41247;49.736;8.752;2022-12-29T02:14:57;9.60;99.90
55369;DHT22;41247;49.736;8.752;2022-12-29T02:32:06;9.80;99.90
55369;DHT22;41247;49.736;8.752;2022-12-29T02:36:07;9.80;99.90
55369;DHT22;41247;49.736;8.752;2022-12-29T02:40:46;9.80;99.90
55369;DHT22;41247;49.736;8.752;2022-12-29T02:44:54;9.80;99.90
55369;DHT22;41247;49.736;8.752;2022-12-29T02:48:58;9.80;99.90
55369;DHT22;41247;49.736;8.752;2022-12-29T02:52:54;9.80;99.90
55369;DHT22;41247;49.736;8.752;2022-12-29T02:56:38;9.90;99.90
55369;DHT22;41247;49.736;8.752;2022-12-29T03:00:19;9.80;99.90
55369;DHT22;41247;49.736;8.752;2022-12-29T03:16:50;9.90;99.90
55369;DHT22;41247;49.736;8.752;2022-12-29T03:20:44;9.80;99.90
55369;DHT22;41247;49.736;8.752;2022-12-29T03:24:37;9.80;99.90
55369;DHT22;41247;49.736;8.752;2022-12-29T03:28:24;9.90;99.90
55369;DHT22;41247;49.736;8.752;2022-12-29T03:32:09;9.90;99.90
55369;DHT22;41247;49.736;8.752;2022-12-29T03:35:51;9.90;99.90
55369;DHT22;41247;49.736;8.752;2022-12-29T03:39:34;9.90;99.90
55369;DHT22;41247;49.736;8.752;2022-12-29T03:43:15;9.90;99.90
55369;DHT22;41247;49.736;8.752;2022-12-29T03:46:57;9.90;99.90
55369;DHT22;41247;49.736;8.752;2022-12-29T03:50:37;9.90;99.90
55369;DHT22;41247;49.736;8.752;2022-12-29T03:54:18;9.90;99.90
55369;DHT22;41247;49.736;8.752;2022-12-29T03:57:59;9.90;99.90
55369;DHT22;41247;49.736;8.752;2022-12-29T04:01:39;9.90;99.90
55369;DHT22;41247;49.736;8.752;2022-12-29T04:05:20;9.90;99.90
55369;DHT22;41247;49.736;8.752;2022-12-29T04:09:01;9.90;99.90
55369;DHT22;41247;49.736;8.752;2022-12-29T04:12:42;9.90;99.90
55369;DHT22;41247;49.736;8.752;2022-12-29T04:16:22;9.90;99.90
55369;DHT22;41247;49.736;8.752;2022-12-29T04:20:04;9.90;99.90
55369;DHT22;41247;49.736;8.752;2022-12-29T04:23:45;9.90;99.90
55369;DHT22;41247;49.736;8.752;2022-12-29T04:27:25;10.00;99.90
55369;DHT22;41247;49.736;8.752;2022-12-29T04:31:06;10.00;99.90
55369;DHT22;41247;49.736;8.752;2022-12-29T04:34:46;10.00;99.90
55369;DHT22;41247;49.736;8.752;2022-12-29T04:38:27;10.00;99.90
55369;DHT22;41247;49.736;8.752;2022-12-29T04:42:08;10.00;99.90
55369;DHT22;41247;49.736;8.752;2022-12-29T04:45:49;10.10;99.90
55369;DHT22;41247;49.736;8.752;2022-12-29T04:49:29;10.10;99.90
55369;DHT22;41247;49.736;8.752;2022-12-29T04:53:10;10.10;99.90
55369;DHT22;41247;49.736;8.752;2022-12-29T04:56:51;10.20;99.90
55369;DHT22;41247;49.736;8.752;2022-12-29T05:00:31;10.20;99.90
55369;DHT22;41247;49.736;8.752;2022-12-29T05:04:12;10.20;99.90
55369;DHT22;41247;49.736;8.752;2022-12-29T05:07:53;10.20;99.90
55369;DHT22;41247;49.736;8.752;2022-12-29T05:11:33;10.20;99.90
55369;DHT22;41247;49.736;8.752;2022-12-29T05:15:14;10.20;99.90
55369;DHT22;41247;49.736;8.752;2022-12-29T05:18:55;10.20;99.90
55369;DHT22;41247;49.736;8.752;2022-12-29T05:22:35;10.20;99.90
55369;DHT22;41247;49.736;8.752;2022-12-29T05:26:16;10.20;99.90
55369;DHT22;41247;49.736;8.752;2022-12-29T05:29:57;10.20;99.90
55369;DHT22;41247;49.736;8.752;2022-12-29T05:33:38;10.20;99.90
55369;DHT22;41247;49.736;8.752;2022-12-29T05:37:18;10.20;99.90
55369;DHT22;41247;49.736;8.752;2022-12-29T05:40:59;10.20;99.90
55369;DHT22;41247;49.736;8.752;2022-12-29T05:44:39;10.30;99.90
55369;DHT22;41247;49.736;8.752;2022-12-29T05:48:20;10.30;99.90
55369;DHT22;41247;49.736;8.752;2022-12-29T05:52:01;10.40;99.90
55369;DHT22;41247;49.736;8.752;2022-12-29T05:55:42;10.40;99.90
55369;DHT22;41247;49.736;8.752;2022-12-29T05:59:26;10.40;99.90
55369;DHT22;41247;49.736;8.752;2022-12-29T06:03:07;10.40;99.90
55369;DHT22;41247;49.736;8.752;2022-12-29T06:06:48;10.40;99.90
55369;DHT22;41247;49.736;8.752;2022-12-29T06:10:28;10.40;99.90
55369;DHT22;41247;49.736;8.752;2022-12-29T06:14:09;10.40;99.90
55369;DHT22;41247;49.736;8.752;2022-12-29T06:17:50;10.40;99.90
55369;DHT22;41247;49.736;8.752;2022-12-29T06:21:30;10.30;99.90
55369;DHT22;41247;49.736;8.752;2022-12-29T06:25:11;10.30;99.90
55369;DHT22;41247;49.736;8.752;2022-12-29T06:28:51;10.30;99.90
55369;DHT22;41247;49.736;8.752;2022-12-29T06:32:32;10.30;99.90
55369;DHT22;41247;49.736;8.752;2022-12-29T06:36:13;10.30;99.90
55369;DHT22;41247;49.736;8.752;2022-12-29T06:39:54;10.30;99.90
55369;DHT22;41247;49.736;8.752;2022-12-29T06:43:34;10.40;99.90
55369;DHT22;41247;49.736;8.752;2022-12-29T06:47:21;10.40;99.90
55369;DHT22;41247;49.736;8.752;2022-12-29T06:51:02;10.40;99.90
55369;DHT22;41247;49.736;8.752;2022-12-29T06:54:42;10.40;99.90
55369;DHT22;41247;49.736;8.752;2022-12-29T06:58:23;10.40;99.90
55369;DHT22;41247;49.736;8.752;2022-12-29T07:02:04;10.40;99.90
55369;DHT22;41247;49.736;8.752;2022-12-29T07:05:44;10.50;99.90
55369;DHT22;41247;49.736;8.752;2022-12-29T07:09:25;10.50;99.90
55369;DHT22;41247;49.736;8.752;2022-12-29T07:13:06;10.50;99.90
55369;DHT22;41247;49.736;8.752;2022-12-29T07:16:46;10.50;99.90
55369;DHT22;41247;49.736;8.752;2022-12-29T07:20:27;10.50;99.90
55369;DHT22;41247;49.736;8.752;2022-12-29T07:24:07;10.50;99.90
55369;DHT22;41247;49.736;8.752;2022-12-29T07:27:49;10.60;99.90
55369;DHT22;41247;49.736;8.752;2022-12-29T07:31:30;10.60;99.90
55369;DHT22;41247;49.736;8.752;2022-12-29T07:35:11;10.40;99.90
55369;DHT22;41247;49.736;8.752;2022-12-29T07:38:51;10.30;99.90
55369;DHT22;41247;49.736;8.752;2022-12-29T07:42:32;10.30;99.90
55369;DHT22;41247;49.736;8.752;2022-12-29T07:46:13;10.30;99.90
55369;DHT22;41247;49.736;8.752;2022-12-29T07:49:53;10.40;99.90
55369;DHT22;41247;49.736;8.752;2022-12-29T07:53:34;10.40;99.90
55369;DHT22;41247;49.736;8.752;2022-12-29T07:57:14;10.50;99.90
55369;DHT22;41247;49.736;8.752;2022-12-29T08:00:55;10.40;99.90
55369;DHT22;41247;49.736;8.752;2022-12-29T08:04:37;10.40;99.90
55369;DHT22;41247;49.736;8.752;2022-12-29T08:08:17;10.40;99.90
55369;DHT22;41247;49.736;8.752;2022-12-29T08:11:58;10.40;99.90
55369;DHT22;41247;49.736;8.752;2022-12-29T08:15:39;10.50;99.90
55369;DHT22;41247;49.736;8.752;2022-12-29T08:19:19;10.60;99.90
55369;DHT22;41247;49.736;8.752;2022-12-29T08:23:00;10.80;99.90
55369;DHT22;41247;49.736;8.752;2022-12-29T08:26:40;10.90;99.90
55369;DHT22;41247;49.736;8.752;2022-12-29T08:30:21;10.90;99.90
55369;DHT22;41247;49.736;8.752;2022-12-29T08:34:02;11.00;99.90
55369;DHT22;41247;49.736;8.752;2022-12-29T08:37:42;11.00;99.90
55369;DHT22;41247;49.736;8.752;2022-12-29T08:41:23;11.10;99.90
55369;DHT22;41247;49.736;8.752;2022-12-29T08:45:04;11.20;99.90
55369;DHT22;41247;49.736;8.752;2022-12-29T08:48:45;11.20;99.90
55369;DHT22;41247;49.736;8.752;2022-12-29T08:52:25;11.00;99.90
55369;DHT22;41247;49.736;8.752;2022-12-29T08:56:08;11.00;99.90
55369;DHT22;41247;49.736;8.752;2022-12-29T08:59:49;11.00;99.90
55369;DHT22;41247;49.736;8.752;2022-12-29T09:03:29;11.00;99.90
55369;DHT22;41247;49.736;8.752;2022-12-29T09:07:10;11.10;99.90
55369;DHT22;41247;49.736;8.752;2022-12-29T09:10:51;11.20;99.90
55369;DHT22;41247;49.736;8.752;2022-12-29T09:14:32;11.20;99.90
55369;DHT22;41247;49.736;8.752;2022-12-29T09:18:13;11.20;99.90
55369;DHT22;41247;49.736;8.752;2022-12-29T09:21:53;11.10;99.90
55369;DHT22;41247;49.736;8.752;2022-12-29T09:25:34;11.10;99.90
55369;DHT22;41247;49.736;8.752;2022-12-29T09:29:14;11.00;99.90
55369;DHT22;41247;49.736;8.752;2022-12-29T09:32:55;11.00;99.90
55369;DHT22;41247;49.736;8.752;2022-12-29T09:36:36;11.00;99.90
55369;DHT22;41247;49.736;8.752;2022-12-29T09:40:27;11.10;99.90
55369;DHT22;41247;49.736;8.752;2022-12-29T09:44:38;11.00;99.90
55369;DHT22;41247;49.736;8.752;2022-12-29T09:48:34;11.00;99.90
55369;DHT22;41247;49.736;8.752;2022-12-29T09:52:21;11.10;99.90
55369;DHT22;41247;49.736;8.752;2022-12-29T09:56:05;11.10;99.90
55369;DHT22;41247;49.736;8.752;2022-12-29T09:59:59;11.10;99.90
55369;DHT22;41247;49.736;8.752;2022-12-29T10:03:51;11.10;99.90
55369;DHT22;41247;49.736;8.752;2022-12-29T10:07:40;11.20;99.90
55369;DHT22;41247;49.736;8.752;2022-12-29T10:24:09;11.30;99.90
55369;DHT22;41247;49.736;8.752;2022-12-29T10:27:54;11.20;99.90
55369;DHT22;41247;49.736;8.752;2022-12-29T10:31:43;11.30;99.90
55369;DHT22;41247;49.736;8.752;2022-12-29T10:35:35;11.40;99.90
55369;DHT22;41247;49.736;8.752;2022-12-29T10:39:25;11.50;99.90
55369;DHT22;41247;49.736;8.752;2022-12-29T10:43:51;11.50;99.90
55369;DHT22;41247;49.736;8.752;2022-12-29T10:47:38;11.50;99.90
55369;DHT22;41247;49.736;8.752;2022-12-29T10:51:24;11.40;99.90
55369;DHT22;41247;49.736;8.752;2022-12-29T10:55:13;11.20;99.90
55369;DHT22;41247;49.736;8.752;2022-12-29T10:58:59;10.90;99.90
55369;DHT22;41247;49.736;8.752;2022-12-29T11:07:00;10.40;99.90
55369;DHT22;41247;49.736;8.752;2022-12-29T11:10:43;10.00;99.90
55369;DHT22;41247;49.736;8.752;2022-12-29T11:14:30;9.60;99.90
55369;DHT22;41247;49.736;8.752;2022-12-29T11:18:20;9.10;99.90
55369;DHT22;41247;49.736;8.752;2022-12-29T11:22:22;8.90;99.90
55369;DHT22;41247;49.736;8.752;2022-12-29T11:30:00;8.70;99.90
55369;DHT22;41247;49.736;8.752;2022-12-29T11:33:40;8.70;99.90
55369;DHT22;41247;49.736;8.752;2022-12-29T11:37:36;8.80;99.90
55369;DHT22;41247;49.736;8.752;2022-12-29T11:41:27;8.80;99.90
55369;DHT22;41247;49.736;8.752;2022-12-29T11:45:23;8.90;99.90
55369;DHT22;41247;49.736;8.752;2022-12-29T11:49:05;8.90;99.90
55369;DHT22;41247;49.736;8.752;2022-12-29T11:52:46;8.90;99.90
55369;DHT22;41247;49.736;8.752;2022-12-29T11:56:39;9.00;99.90
55369;DHT22;41247;49.736;8.752;2022-12-29T12:00:23;8.90;99.90
55369;DHT22;41247;49.736;8.752;2022-12-29T12:04:32;9.00;99.90
55369;DHT22;41247;49.736;8.752;2022-12-29T12:08:43;9.00;99.90
55369;DHT22;41247;49.736;8.752;2022-12-29T12:12:46;8.90;99.90
55369;DHT22;41247;49.736;8.752;2022-12-29T12:16:40;8.80;99.90
55369;DHT22;41247;49.736;8.752;2022-12-29T12:20:36;8.70;99.90
55369;DHT22;41247;49.736;8.752;2022-12-29T12:24:39;8.70;99.90
55369;DHT22;41247;49.736;8.752;2022-12-29T12:28:33;8.80;99.90
55369;DHT22;41247;49.736;8.752;2022-12-29T12:32:23;8.70;99.90
55369;DHT22;41247;49.736;8.752;2022-12-29T12:36:25;8.70;99.90
55369;DHT22;41247;49.736;8.752;2022-12-29T12:40:39;8.80;99.90
55369;DHT22;41247;49.736;8.752;2022-12-29T12:44:50;8.80;99.90
55369;DHT22;41247;49.736;8.752;2022-12-29T12:53:07;8.90;99.90
55369;DHT22;41247;49.736;8.752;2022-12-29T13:00:59;9.30;99.90
55369;DHT22;41247;49.736;8.752;2022-12-29T13:05:25;9.30;99.90
55369;DHT22;41247;49.736;8.752;2022-12-29T13:17:38;9.30;99.90
55369;DHT22;41247;49.736;8.752;2022-12-29T13:21:56;9.30;99.90
55369;DHT22;41247;49.736;8.752;2022-12-29T13:25:59;9.30;99.90
55369;DHT22;41247;49.736;8.752;2022-12-29T13:30:15;9.30;99.90
55369;DHT22;41247;49.736;8.752;2022-12-29T13:38:11;9.30;99.90
55369;DHT22;41247;49.736;8.752;2022-12-29T13:41:55;9.40;99.90
55369;DHT22;41247;49.736;8.752;2022-12-29T13:45:37;9.40;99.90
55369;DHT22;41247;49.736;8.752;2022-12-29T13:49:20;9.50;99.90
55369;DHT22;41247;49.736;8.752;2022-12-29T13:57:57;9.50;99.90
55369;DHT22;41247;49.736;8.752;2022-12-29T14:01:52;9.50;99.90
55369;DHT22;41247;49.736;8.752;2022-12-29T14:05:36;9.40;99.90
55369;DHT22;41247;49.736;8.752;2022-12-29T14:09:42;9.40;99.90
55369;DHT22;41247;49.736;8.752;2022-12-29T14:13:25;9.40;99.90
55369;DHT22;41247;49.736;8.752;2022-12-29T14:17:16;9.40;99.90
55369;DHT22;41247;49.736;8.752;2022-12-29T14:21:08;9.40;99.90
55369;DHT22;41247;49.736;8.752;2022-12-29T14:25:00;9.20;99.90
55369;DHT22;41247;49.736;8.752;2022-12-29T14:28:49;9.10;99.90
55369;DHT22;41247;49.736;8.752;2022-12-29T14:36:21;8.50;99.90
55369;DHT22;41247;49.736;8.752;2022-12-29T14:40:13;8.30;99.90
55369;DHT22;41247;49.736;8.752;2022-12-29T14:44:19;8.20;99.90
55369;DHT22;41247;49.736;8.752;2022-12-29T14:47:59;8.20;99.90
55369;DHT22;41247;49.736;8.752;2022-12-29T14:51:40;8.10;99.90
55369;DHT22;41247;49.736;8.752;2022-12-29T14:55:40;8.10;99.90
55369;DHT22;41247;49.736;8.752;2022-12-29T14:59:20;8.00;99.90
55369;DHT22;41247;49.736;8.752;2022-12-29T15:03:18;8.00;99.90
55369;DHT22;41247;49.736;8.752;2022-12-29T15:07:02;7.90;99.90
55369;DHT22;41247;49.736;8.752;2022-12-29T15:11:02;7.90;99.90
55369;DHT22;41247;49.736;8.752;2022-12-29T15:14:54;7.90;99.90
55369;DHT22;41247;49.736;8.752;2022-12-29T15:18:38;7.90;99.90
55369;DHT22;41247;49.736;8.752;2022-12-29T15:22:19;7.90;99.90
55369;DHT22;41247;49.736;8.752;2022-12-29T15:26:06;7.90;99.90
55369;DHT22;41247;49.736;8.752;2022-12-29T15:29:48;7.90;99.90
55369;DHT22;41247;49.736;8.752;2022-12-29T15:33:40;8.10;99.90
55369;DHT22;41247;49.736;8.752;2022-12-29T15:37:28;8.10;99.90
55369;DHT22;41247;49.736;8.752;2022-12-29T15:41:24;8.10;99.90
55369;DHT22;41247;49.736;8.752;2022-12-29T15:45:08;8.10;99.90
55369;DHT22;41247;49.736;8.752;2022-12-29T15:48:51;8.10;99.90
55369;DHT22;41247;49.736;8.752;2022-12-29T15:52:33;8.00;99.90
55369;DHT22;41247;49.736;8.752;2022-12-29T15:56:14;8.00;99.90
55369;DHT22;41247;49.736;8.752;2022-12-29T15:59:55;7.90;99.90
55369;DHT22;41247;49.736;8.752;2022-12-29T16:03:36;7.90;99.90
55369;DHT22;41247;49.736;8.752;2022-12-29T16:07:32;7.90;99.90
55369;DHT22;41247;49.736;8.752;2022-12-29T16:11:26;7.90;99.90
55369;DHT22;41247;49.736;8.752;2022-12-29T16:15:13;7.90;99.90
55369;DHT22;41247;49.736;8.752;2022-12-29T16:18:55;7.90;99.90
55369;DHT22;41247;49.736;8.752;2022-12-29T16:22:40;7.90;99.90
55369;DHT22;41247;49.736;8.752;2022-12-29T16:26:23;7.80;99.90
55369;DHT22;41247;49.736;8.752;2022-12-29T16:30:12;7.80;99.90
55369;DHT22;41247;49.736;8.752;2022-12-29T16:34:28;7.80;99.90
55369;DHT22;41247;49.736;8.752;2022-12-29T16:38:18;7.80;99.90
55369;DHT22;41247;49.736;8.752;2022-12-29T16:42:00;7.80;99.90
55369;DHT22;41247;49.736;8.752;2022-12-29T16:49:29;7.90;99.90
55369;DHT22;41247;49.736;8.752;2022-12-29T16:53:20;7.90;99.90
55369;DHT22;41247;49.736;8.752;2022-12-29T16:57:04;7.90;99.90
55369;DHT22;41247;49.736;8.752;2022-12-29T17:00:45;8.00;99.90
55369;DHT22;41247;49.736;8.752;2022-12-29T17:04:26;8.00;99.90
55369;DHT22;41247;49.736;8.752;2022-12-29T17:08:27;8.00;99.90
55369;DHT22;41247;49.736;8.752;2022-12-29T17:12:17;8.10;99.90
55369;DHT22;41247;49.736;8.752;2022-12-29T17:15:59;8.10;99.90
55369;DHT22;41247;49.736;8.752;2022-12-29T17:19:44;8.10;99.90
55369;DHT22;41247;49.736;8.752;2022-12-29T17:23:32;8.10;99.90
55369;DHT22;41247;49.736;8.752;2022-12-29T17:27:35;8.10;99.90
55369;DHT22;41247;49.736;8.752;2022-12-29T17:31:18;8.10;99.90
55369;DHT22;41247;49.736;8.752;2022-12-29T17:34:58;8.10;99.90
55369;DHT22;41247;49.736;8.752;2022-12-29T17:38:39;8.10;99.90
55369;DHT22;41247;49.736;8.752;2022-12-29T17:42:20;8.10;99.90
55369;DHT22;41247;49.736;8.752;2022-12-29T17:46:00;8.10;99.90
55369;DHT22;41247;49.736;8.752;2022-12-29T17:49:41;8.10;99.90
55369;DHT22;41247;49.736;8.752;2022-12-29T17:53:25;8.10;99.90
55369;DHT22;41247;49.736;8.752;2022-12-29T17:57:10;8.10;99.90
55369;DHT22;41247;49.736;8.752;2022-12-29T18:00:55;8.10;99.90
55369;DHT22;41247;49.736;8.752;2022-12-29T18:04:37;8.10;99.90
55369;DHT22;41247;49.736;8.752;2022-12-29T18:08:18;8.10;99.90
55369;DHT22;41247;49.736;8.752;2022-12-29T18:11:58;8.10;99.90
55369;DHT22;41247;49.736;8.752;2022-12-29T18:15:39;8.10;99.90
55369;DHT22;41247;49.736;8.752;2022-12-29T18:19:19;8.10;99.90
55369;DHT22;41247;49.736;8.752;2022-12-29T18:23:00;8.10;99.90
55369;DHT22;41247;49.736;8.752;2022-12-29T18:26:40;8.10;99.90
55369;DHT22;41247;49.736;8.752;2022-12-29T18:30:21;8.20;99.90
55369;DHT22;41247;49.736;8.752;2022-12-29T18:34:10;8.20;99.90
55369;DHT22;41247;49.736;8.752;2022-12-29T18:37:53;8.10;99.90
55369;DHT22;41247;49.736;8.752;2022-12-29T18:41:33;8.10;99.90
55369;DHT22;41247;49.736;8.752;2022-12-29T18:45:20;8.10;99.90
55369;DHT22;41247;49.736;8.752;2022-12-29T18:49:01;8.10;99.90
55369;DHT22;41247;49.736;8.752;2022-12-29T18:52:43;8.00;99.90
55369;DHT22;41247;49.736;8.752;2022-12-29T18:56:23;8.10;99.90
55369;DHT22;41247;49.736;8.752;2022-12-29T19:00:05;8.10;99.90
55369;DHT22;41247;49.736;8.752;2022-12-29T19:03:46;8.00;99.90
55369;DHT22;41247;49.736;8.752;2022-12-29T19:07:27;8.00;99.90
55369;DHT22;41247;49.736;8.752;2022-12-29T19:11:08;8.00;99.90
55369;DHT22;41247;49.736;8.752;2022-12-29T19:14:48;8.10;99.90
55369;DHT22;41247;49.736;8.752;2022-12-29T19:18:29;8.20;99.90
55369;DHT22;41247;49.736;8.752;2022-12-29T19:22:09;8.20;99.90
55369;DHT22;41247;49.736;8.752;2022-12-29T19:25:51;8.10;99.90
55369;DHT22;41247;49.736;8.752;2022-12-29T19:29:33;8.10;99.90
55369;DHT22;41247;49.736;8.752;2022-12-29T19:33:14;8.10;99.90
55369;DHT22;41247;49.736;8.752;2022-12-29T19:36:55;8.00;99.90
55369;DHT22;41247;49.736;8.752;2022-12-29T19:40:39;8.10;99.90
55369;DHT22;41247;49.736;8.752;2022-12-29T19:44:24;8.10;99.90
55369;DHT22;41247;49.736;8.752;2022-12-29T19:48:06;8.10;99.90
55369;DHT22;41247;49.736;8.752;2022-12-29T19:51:47;8.20;99.90
55369;DHT22;41247;49.736;8.752;2022-12-29T19:55:28;8.10;99.90
55369;DHT22;41247;49.736;8.752;2022-12-29T19:59:08;8.10;99.90
55369;DHT22;41247;49.736;8.752;2022-12-29T20:02:49;8.10;99.90
55369;DHT22;41247;49.736;8.752;2022-12-29T20:06:30;8.10;99.90
55369;DHT22;41247;49.736;8.752;2022-12-29T20:10:10;8.10;99.90
55369;DHT22;41247;49.736;8.752;2022-12-29T20:13:51;8.10;99.90
55369;DHT22;41247;49.736;8.752;2022-12-29T20:17:31;8.20;99.90
55369;DHT22;41247;49.736;8.752;2022-12-29T20:21:20;8.10;99.90
55369;DHT22;41247;49.736;8.752;2022-12-29T20:25:01;8.10;99.90
55369;DHT22;41247;49.736;8.752;2022-12-29T20:28:42;8.10;99.90
55369;DHT22;41247;49.736;8.752;2022-12-29T20:32:23;8.10;99.90
55369;DHT22;41247;49.736;8.752;2022-12-29T20:36:07;8.10;99.90
55369;DHT22;41247;49.736;8.752;2022-12-29T20:39:50;8.20;99.90
55369;DHT22;41247;49.736;8.752;2022-12-29T20:43:30;8.20;99.90
55369;DHT22;41247;49.736;8.752;2022-12-29T20:47:11;8.20;99.90
55369;DHT22;41247;49.736;8.752;2022-12-29T20:50:52;8.20;99.90
55369;DHT22;41247;49.736;8.752;2022-12-29T20:54:32;8.20;99.90
55369;DHT22;41247;49.736;8.752;2022-12-29T20:58:13;8.20;99.90
55369;DHT22;41247;49.736;8.752;2022-12-29T21:01:54;8.20;99.90
55369;DHT22;41247;49.736;8.752;2022-12-29T21:05:36;8.20;99.90
55369;DHT22;41247;49.736;8.752;2022-12-29T21:09:17;8.20;99.90
55369;DHT22;41247;49.736;8.752;2022-12-29T21:12:58;8.20;99.90
55369;DHT22;41247;49.736;8.752;2022-12-29T21:16:39;8.20;99.90
55369;DHT22;41247;49.736;8.752;2022-12-29T21:20:19;8.20;99.90
55369;DHT22;41247;49.736;8.752;2022-12-29T21:24:00;8.20;99.90
55369;DHT22;41247;49.736;8.752;2022-12-29T21:27:40;8.10;99.90
55369;DHT22;41247;49.736;8.752;2022-12-29T21:31:29;8.10;99.90
55369;DHT22;41247;49.736;8.752;2022-12-29T21:35:13;8.10;99.90
55369;DHT22;41247;49.736;8.752;2022-12-29T21:38:55;8.00;99.90
55369;DHT22;41247;49.736;8.752;2022-12-29T21:42:35;8.00;99.90
55369;DHT22;41247;49.736;8.752;2022-12-29T21:46:17;8.00;99.90
55369;DHT22;41247;49.736;8.752;2022-12-29T21:49:58;8.00;99.90
55369;DHT22;41247;49.736;8.752;2022-12-29T21:53:40;8.00;99.90
55369;DHT22;41247;49.736;8.752;2022-12-29T21:57:22;7.90;99.90
55369;DHT22;41247;49.736;8.752;2022-12-29T22:01:03;7.90;99.90
55369;DHT22;41247;49.736;8.752;2022-12-29T22:04:44;7.90;99.90
55369;DHT22;41247;49.736;8.752;2022-12-29T22:08:24;7.90;99.90
55369;DHT22;41247;49.736;8.752;2022-12-29T22:12:05;7.80;99.90
55369;DHT22;41247;49.736;8.752;2022-12-29T22:15:45;7.80;99.90
55369;DHT22;41247;49.736;8.752;2022-12-29T22:19:26;7.70;99.90
55369;DHT22;41247;49.736;8.752;2022-12-29T22:23:06;7.70;99.90
55369;DHT22;41247;49.736;8.752;2022-12-29T22:26:47;7.60;99.90
55369;DHT22;41247;49.736;8.752;2022-12-29T22:30:28;7.60;99.90
55369;DHT22;41247;49.736;8.752;2022-12-29T22:34:08;7.50;99.90
55369;DHT22;41247;49.736;8.752;2022-12-29T22:37:49;7.40;99.90
55369;DHT22;41247;49.736;8.752;2022-12-29T22:41:30;7.30;99.90
55369;DHT22;41247;49.736;8.752;2022-12-29T22:45:10;7.30;99.90
55369;DHT22;41247;49.736;8.752;2022-12-29T22:48:51;7.20;99.90
55369;DHT22;41247;49.736;8.752;2022-12-29T22:52:32;7.20;99.90
55369;DHT22;41247;49.736;8.752;2022-12-29T22:56:13;7.10;99.90
55369;DHT22;41247;49.736;8.752;2022-12-29T22:59:53;7.00;99.90
55369;DHT22;41247;49.736;8.752;2022-12-29T23:03:34;6.90;99.90
55369;DHT22;41247;49.736;8.752;2022-12-29T23:07:15;6.90;99.90
55369;DHT22;41247;49.736;8.752;2022-12-29T23:10:55;6.80;99.90
55369;DHT22;41247;49.736;8.752;2022-12-29T23:14:36;6.70;99.90
55369;DHT22;41247;49.736;8.752;2022-12-29T23:18:17;6.70;99.90
55369;DHT22;41247;49.736;8.752;2022-12-29T23:21:57;6.70;99.90
55369;DHT22;41247;49.736;8.752;2022-12-29T23:25:38;6.60;99.90
55369;DHT22;41247;49.736;8.752;2022-12-29T23:29:19;6.60;99.90
55369;DHT22;41247;49.736;8.752;2022-12-29T23:32:59;6.50;99.90
55369;DHT22;41247;49.736;8.752;2022-12-29T23:36:40;6.50;99.90
55369;DHT22;41247;49.736;8.752;2022-12-29T23:40:21;6.50;99.90
55369;DHT22;41247;49.736;8.752;2022-12-29T23:44:02;6.50;99.90
55369;DHT22;41247;49.736;8.752;2022-12-29T23:47:42;6.40;99.90
55369;DHT22;41247;49.736;8.752;2022-12-29T23:51:23;6.40;99.90
55369;DHT22;41247;49.736;8.752;2022-12-29T23:55:04;6.30;99.90
55369;DHT22;41247;49.736;8.752;2022-12-29T23:58:45;6.20;99.90
